createdAt,value
2023-01-30T00:00:11.821Z,39.74
2023-01-30T00:01:11.798Z,42.06
2023-01-30T00:02:11.846Z,37.35
2023-01-30T00:03:11.787Z,38.76
2023-01-30T00:54:52.520Z,25.00
2023-01-30T00:55:53.447Z,25.00
2023-01-30T00:56:53.433Z,25.00
2023-01-30T00:57:53.429Z,25.00
2023-01-30T00:58:53.414Z,25.00
2023-01-30T00:59:53.444Z,25.00
2023-01-30T01:00:53.392Z,0.00
2023-01-30T01:01:53.448Z,0.00
2023-01-30T01:02:53.465Z,0.00
2023-01-30T01:03:53.365Z,0.00
2023-01-30T01:04:53.429Z,0.00
2023-01-30T01:05:53.349Z,0.00
2023-01-30T01:06:53.373Z,0.00
2023-01-30T01:07:53.345Z,7.97
2023-01-30T01:08:53.340Z,23.47
2023-01-30T01:09:53.361Z,24.79
2023-01-30T01:10:53.361Z,25.00
2023-01-30T01:11:53.296Z,25.08
2023-01-30T01:12:53.296Z,25.00
2023-01-30T01:13:53.300Z,25.00
2023-01-30T01:14:53.276Z,25.00
2023-01-30T01:15:53.275Z,26.66
2023-01-30T01:16:53.267Z,25.29
2023-01-30T01:17:53.260Z,25.12
2023-01-30T01:18:53.243Z,25.00
2023-01-30T01:19:53.230Z,25.00
2023-01-30T01:20:53.228Z,26.89
2023-01-30T01:21:53.213Z,25.48
2023-01-30T01:22:53.199Z,25.00
2023-01-30T01:23:53.201Z,27.18
2023-01-30T01:24:53.192Z,25.29
2023-01-30T01:25:53.213Z,27.51
2023-01-30T01:26:53.165Z,25.64
2023-01-30T01:27:53.156Z,28.03
2023-01-30T01:28:53.152Z,26.43
2023-01-30T01:29:53.152Z,28.95
2023-01-30T01:30:53.210Z,25.34
2023-01-30T01:31:53.181Z,25.75
2023-01-30T01:32:53.134Z,27.12
2023-01-30T01:33:53.110Z,28.61
2023-01-30T01:34:53.094Z,26.22
2023-01-30T01:35:53.162Z,27.38
2023-01-30T01:36:54.279Z,27.57
2023-01-30T01:37:53.120Z,27.61
2023-01-30T01:38:53.113Z,27.40
2023-01-30T01:39:53.104Z,26.10
2023-01-30T01:40:53.158Z,29.23
2023-01-30T01:41:53.087Z,29.80
2023-01-30T01:42:53.071Z,27.15
2023-01-30T01:43:53.066Z,26.19
2023-01-30T01:44:53.062Z,29.09
2023-01-30T01:45:53.091Z,27.79
2023-01-30T01:46:53.099Z,25.26
2023-01-30T01:47:53.027Z,28.40
2023-01-30T01:48:53.023Z,28.72
2023-01-30T01:49:53.017Z,26.66
2023-01-30T01:50:53.008Z,28.32
2023-01-30T01:51:53.013Z,28.74
2023-01-30T01:52:52.990Z,28.87
2023-01-30T01:53:52.983Z,29.23
2023-01-30T01:54:52.979Z,27.04
2023-01-30T01:55:52.961Z,25.64
2023-01-30T01:56:52.949Z,26.51
2023-01-30T01:57:52.944Z,29.03
2023-01-30T01:58:52.938Z,28.79
2023-01-30T01:59:52.930Z,30.93
2023-01-30T02:00:52.992Z,27.61
2023-01-30T02:01:52.908Z,28.40
2023-01-30T02:02:52.903Z,30.01
2023-01-30T02:03:52.887Z,30.44
2023-01-30T02:04:52.880Z,33.15
2023-01-30T02:05:52.872Z,32.46
2023-01-30T02:06:52.865Z,30.15
2023-01-30T02:07:52.853Z,28.80
2023-01-30T02:08:52.852Z,29.77
2023-01-30T02:09:52.835Z,29.80
2023-01-30T02:10:52.828Z,31.77
2023-01-30T02:11:52.820Z,30.45
2023-01-30T02:12:52.845Z,30.66
2023-01-30T02:13:52.809Z,29.55
2023-01-30T02:14:52.793Z,31.51
2023-01-30T02:15:52.794Z,27.45
2023-01-30T02:16:52.772Z,29.12
2023-01-30T02:17:52.786Z,31.48
2023-01-30T02:18:52.780Z,29.28
2023-01-30T02:19:52.748Z,27.81
2023-01-30T02:20:52.746Z,30.66
2023-01-30T02:21:52.731Z,28.03
2023-01-30T02:22:52.723Z,30.92
2023-01-30T02:23:52.717Z,30.42
2023-01-30T02:24:52.717Z,30.39
2023-01-30T02:25:54.096Z,27.40
2023-01-30T02:26:52.683Z,30.48
2023-01-30T02:27:52.675Z,28.44
2023-01-30T02:28:52.669Z,29.89
2023-01-30T02:29:52.663Z,30.32
2023-01-30T02:30:52.750Z,27.98
2023-01-30T02:31:52.650Z,32.59
2023-01-30T02:32:52.635Z,31.95
2023-01-30T02:33:52.629Z,29.64
2023-01-30T02:34:52.616Z,26.16
2023-01-30T02:35:52.607Z,28.97
2023-01-30T02:36:52.605Z,25.55
2023-01-30T02:37:52.588Z,28.44
2023-01-30T02:38:52.585Z,31.07
2023-01-30T02:39:52.599Z,25.96
2023-01-30T02:40:52.559Z,32.47
2023-01-30T02:41:52.561Z,26.92
2023-01-30T02:42:52.554Z,29.94
2023-01-30T02:43:52.538Z,29.53
2023-01-30T02:44:52.534Z,31.31
2023-01-30T02:45:52.557Z,28.49
2023-01-30T02:46:52.538Z,27.17
2023-01-30T02:47:52.523Z,25.62
2023-01-30T02:48:52.492Z,25.67
2023-01-30T02:49:52.479Z,26.61
2023-01-30T02:50:52.476Z,29.06
2023-01-30T02:51:52.812Z,28.59
2023-01-30T02:52:52.458Z,32.49
2023-01-30T02:53:52.445Z,29.67
2023-01-30T02:54:52.449Z,26.50
2023-01-30T02:55:52.424Z,31.22
2023-01-30T02:56:52.514Z,30.97
2023-01-30T02:57:52.407Z,28.28
2023-01-30T02:58:52.403Z,30.20
2023-01-30T02:59:52.394Z,29.07
2023-01-30T03:00:52.387Z,27.75
2023-01-30T03:01:52.375Z,28.57
2023-01-30T03:02:52.499Z,26.94
2023-01-30T03:03:52.362Z,28.77
2023-01-30T03:04:52.350Z,29.94
2023-01-30T03:05:52.346Z,31.74
2023-01-30T03:06:52.331Z,29.35
2023-01-30T03:07:52.318Z,31.63
2023-01-30T03:08:52.329Z,29.57
2023-01-30T03:09:52.312Z,28.76
2023-01-30T03:10:52.309Z,28.75
2023-01-30T03:11:52.292Z,28.09
2023-01-30T03:12:52.275Z,31.41
2023-01-30T03:13:52.265Z,28.90
2023-01-30T03:14:52.267Z,30.17
2023-01-30T03:15:52.271Z,29.69
2023-01-30T03:16:52.247Z,30.10
2023-01-30T03:17:52.239Z,31.31
2023-01-30T03:18:52.220Z,26.50
2023-01-30T03:19:52.211Z,30.43
2023-01-30T03:20:52.243Z,31.18
2023-01-30T03:21:52.211Z,31.52
2023-01-30T03:22:52.193Z,34.53
2023-01-30T03:23:52.181Z,35.62
2023-01-30T03:24:52.183Z,30.73
2023-01-30T03:25:52.164Z,31.44
2023-01-30T03:26:52.161Z,31.37
2023-01-30T03:27:52.174Z,29.78
2023-01-30T03:28:52.136Z,28.97
2023-01-30T03:29:52.146Z,34.82
2023-01-30T03:30:52.231Z,31.66
2023-01-30T03:31:52.192Z,31.35
2023-01-30T03:32:52.100Z,33.52
2023-01-30T03:33:52.091Z,30.19
2023-01-30T03:34:52.082Z,32.47
2023-01-30T03:35:52.068Z,31.15
2023-01-30T03:36:52.067Z,28.97
2023-01-30T03:37:52.059Z,28.62
2023-01-30T03:38:52.071Z,31.19
2023-01-30T03:39:52.039Z,29.71
2023-01-30T03:40:52.282Z,32.61
2023-01-30T03:41:52.020Z,33.37
2023-01-30T03:42:52.026Z,34.01
2023-01-30T03:43:52.001Z,29.64
2023-01-30T03:44:52.015Z,31.65
2023-01-30T03:45:52.045Z,31.52
2023-01-30T03:46:51.987Z,32.61
2023-01-30T03:47:51.986Z,31.34
2023-01-30T03:48:51.961Z,30.21
2023-01-30T03:49:51.948Z,29.94
2023-01-30T03:50:51.937Z,32.98
2023-01-30T03:51:51.929Z,33.84
2023-01-30T03:52:51.937Z,29.75
2023-01-30T03:53:51.918Z,34.11
2023-01-30T03:54:51.909Z,33.27
2023-01-30T03:55:51.923Z,34.25
2023-01-30T03:56:51.891Z,32.56
2023-01-30T03:57:51.885Z,34.75
2023-01-30T03:58:51.867Z,29.82
2023-01-30T03:59:51.869Z,32.25
2023-01-30T04:00:52.009Z,35.71
2023-01-30T04:01:51.852Z,33.53
2023-01-30T04:02:51.829Z,35.69
2023-01-30T04:03:51.823Z,31.93
2023-01-30T04:04:51.817Z,32.31
2023-01-30T04:05:51.806Z,33.09
2023-01-30T04:06:51.799Z,32.88
2023-01-30T04:07:51.787Z,34.63
2023-01-30T04:08:51.782Z,34.61
2023-01-30T04:09:51.775Z,31.55
2023-01-30T04:10:51.759Z,33.98
2023-01-30T04:11:51.755Z,31.91
2023-01-30T04:12:51.752Z,32.36
2023-01-30T04:13:51.740Z,32.35
2023-01-30T04:14:51.800Z,35.31
2023-01-30T04:15:51.730Z,31.62
2023-01-30T04:16:51.799Z,31.66
2023-01-30T04:17:51.707Z,34.09
2023-01-30T04:18:51.689Z,26.82
2023-01-30T04:19:51.678Z,31.54
2023-01-30T04:20:51.676Z,32.65
2023-01-30T04:21:51.669Z,34.92
2023-01-30T04:22:51.656Z,32.85
2023-01-30T04:23:51.647Z,32.32
2023-01-30T04:24:51.646Z,33.41
2023-01-30T04:25:51.628Z,33.26
2023-01-30T04:26:51.627Z,31.84
2023-01-30T04:27:51.626Z,32.70
2023-01-30T04:28:51.601Z,33.30
2023-01-30T04:29:51.638Z,33.29
2023-01-30T04:30:51.647Z,34.57
2023-01-30T04:31:51.613Z,33.14
2023-01-30T04:32:51.589Z,33.06
2023-01-30T04:33:51.557Z,29.92
2023-01-30T04:34:51.550Z,31.01
2023-01-30T04:35:51.536Z,32.14
2023-01-30T04:36:51.530Z,34.63
2023-01-30T04:37:51.531Z,31.42
2023-01-30T04:38:51.515Z,33.32
2023-01-30T04:39:51.501Z,32.31
2023-01-30T04:40:51.489Z,30.97
2023-01-30T04:41:51.481Z,34.54
2023-01-30T04:42:51.484Z,33.69
2023-01-30T04:43:51.474Z,32.05
2023-01-30T04:44:51.461Z,34.35
2023-01-30T04:45:51.453Z,32.28
2023-01-30T04:46:51.444Z,35.72
2023-01-30T04:47:51.539Z,32.41
2023-01-30T04:48:51.449Z,34.50
2023-01-30T04:49:51.411Z,32.68
2023-01-30T04:50:51.420Z,34.31
2023-01-30T04:51:51.399Z,30.92
2023-01-30T04:52:51.387Z,31.88
2023-01-30T04:53:51.406Z,35.93
2023-01-30T04:54:51.369Z,34.84
2023-01-30T04:55:51.366Z,33.78
2023-01-30T04:56:51.352Z,32.74
2023-01-30T04:57:51.344Z,35.28
2023-01-30T04:58:51.348Z,35.80
2023-01-30T04:59:51.330Z,34.45
2023-01-30T05:00:51.424Z,32.06
2023-01-30T05:01:51.355Z,31.74
2023-01-30T05:02:51.301Z,31.75
2023-01-30T05:03:51.296Z,32.28
2023-01-30T05:04:51.305Z,32.32
2023-01-30T05:05:51.272Z,31.17
2023-01-30T05:06:51.260Z,34.56
2023-01-30T05:07:51.256Z,35.57
2023-01-30T05:08:51.244Z,31.32
2023-01-30T05:09:51.239Z,34.09
2023-01-30T05:10:51.225Z,35.93
2023-01-30T05:11:51.216Z,32.09
2023-01-30T05:12:51.208Z,33.59
2023-01-30T05:13:51.210Z,34.07
2023-01-30T05:14:51.203Z,37.89
2023-01-30T05:15:51.185Z,34.81
2023-01-30T05:16:51.180Z,30.11
2023-01-30T05:17:51.161Z,35.75
2023-01-30T05:18:51.167Z,30.57
2023-01-30T05:19:51.157Z,33.60
2023-01-30T05:20:51.157Z,31.02
2023-01-30T05:21:51.133Z,33.95
2023-01-30T05:22:51.117Z,31.97
2023-01-30T05:23:51.123Z,33.97
2023-01-30T05:24:51.097Z,33.59
2023-01-30T05:25:51.087Z,34.87
2023-01-30T05:26:51.087Z,34.97
2023-01-30T05:27:51.076Z,34.09
2023-01-30T05:28:51.066Z,36.75
2023-01-30T05:29:51.060Z,35.54
2023-01-30T05:30:51.124Z,35.10
2023-01-30T05:31:51.069Z,35.53
2023-01-30T05:32:51.028Z,30.84
2023-01-30T05:33:51.037Z,33.78
2023-01-30T05:34:51.016Z,33.55
2023-01-30T05:35:51.002Z,34.58
2023-01-30T05:36:51.024Z,32.86
2023-01-30T05:37:51.028Z,36.93
2023-01-30T05:38:50.977Z,32.72
2023-01-30T05:39:50.980Z,35.08
2023-01-30T05:40:50.958Z,33.74
2023-01-30T05:41:50.978Z,31.92
2023-01-30T05:42:50.939Z,33.66
2023-01-30T05:43:50.940Z,37.78
2023-01-30T05:44:50.924Z,34.77
2023-01-30T05:45:50.910Z,34.78
2023-01-30T05:46:51.000Z,39.45
2023-01-30T05:47:50.898Z,33.99
2023-01-30T05:48:50.891Z,35.36
2023-01-30T05:49:50.877Z,36.61
2023-01-30T05:50:50.870Z,35.65
2023-01-30T05:51:51.656Z,34.93
2023-01-30T05:52:50.874Z,34.60
2023-01-30T05:53:50.872Z,37.42
2023-01-30T05:54:50.840Z,35.03
2023-01-30T05:55:50.825Z,35.10
2023-01-30T05:56:50.844Z,37.75
2023-01-30T05:57:50.807Z,36.51
2023-01-30T05:58:50.804Z,36.71
2023-01-30T05:59:50.800Z,36.17
2023-01-30T06:00:50.783Z,35.69
2023-01-30T06:01:50.769Z,33.10
2023-01-30T06:02:50.806Z,36.79
2023-01-30T06:03:50.829Z,35.01
2023-01-30T06:04:50.889Z,37.45
2023-01-30T06:05:50.780Z,38.23
2023-01-30T06:06:50.742Z,36.60
2023-01-30T06:07:50.715Z,36.80
2023-01-30T06:08:50.736Z,34.52
2023-01-30T06:09:50.929Z,33.69
2023-01-30T06:10:50.696Z,37.40
2023-01-30T06:11:51.406Z,36.65
2023-01-30T06:12:50.693Z,37.17
2023-01-30T06:13:50.672Z,39.36
2023-01-30T06:14:50.653Z,35.73
2023-01-30T06:15:50.672Z,39.10
2023-01-30T06:16:50.680Z,35.93
2023-01-30T06:17:50.892Z,36.64
2023-01-30T06:18:50.624Z,36.61
2023-01-30T06:19:50.621Z,35.80
2023-01-30T06:20:50.611Z,36.68
2023-01-30T06:21:50.606Z,36.27
2023-01-30T06:22:50.892Z,40.19
2023-01-30T06:23:50.576Z,38.45
2023-01-30T06:24:50.593Z,39.08
2023-01-30T06:25:50.564Z,42.92
2023-01-30T06:26:50.620Z,41.69
2023-01-30T06:27:50.547Z,39.89
2023-01-30T06:28:50.538Z,42.95
2023-01-30T06:29:50.545Z,41.14
2023-01-30T06:30:50.671Z,42.71
2023-01-30T06:31:50.513Z,44.87
2023-01-30T06:32:50.536Z,46.34
2023-01-30T06:33:50.493Z,44.99
2023-01-30T06:34:50.475Z,46.14
2023-01-30T06:35:50.476Z,47.59
2023-01-30T06:36:50.457Z,48.52
2023-01-30T06:37:50.500Z,50.23
2023-01-30T06:38:50.901Z,52.33
2023-01-30T06:39:50.433Z,50.42
2023-01-30T06:40:50.472Z,52.63
2023-01-30T06:41:50.901Z,54.20
2023-01-30T06:42:50.413Z,57.78
2023-01-30T06:43:50.406Z,63.04
2023-01-30T06:44:50.411Z,68.46
2023-01-30T06:45:50.555Z,80.70
2023-01-30T06:46:50.373Z,83.72
2023-01-30T06:47:50.371Z,85.81
2023-01-30T06:48:50.351Z,88.14
2023-01-30T06:49:50.415Z,89.98
2023-01-30T06:50:50.414Z,91.38
2023-01-30T06:51:50.342Z,96.47
2023-01-30T06:52:50.313Z,97.85
2023-01-30T06:53:52.464Z,116.75
2023-01-30T06:54:50.420Z,116.92
2023-01-30T06:55:52.029Z,118.04
2023-01-30T06:56:50.559Z,117.28
2023-01-30T06:57:50.915Z,118.05
2023-01-30T06:58:50.944Z,120.18
2023-01-30T06:59:50.501Z,124.65
2023-01-30T07:00:50.922Z,136.66
2023-01-30T07:01:50.517Z,237.26
2023-01-30T07:02:50.489Z,186.31
2023-01-30T07:03:50.522Z,197.52
2023-01-30T07:04:50.451Z,219.77
2023-01-30T07:06:50.438Z,194.19
2023-01-30T07:07:50.429Z,194.52
2023-01-30T07:08:50.420Z,201.36
2023-01-30T07:10:05.806Z,202.16
2023-01-30T07:10:50.922Z,195.02
2023-01-30T07:11:50.920Z,195.47
2023-01-30T07:12:50.420Z,199.14
2023-01-30T07:13:50.373Z,206.98
2023-01-30T07:14:50.363Z,221.07
2023-01-30T07:15:50.375Z,239.40
2023-01-30T07:16:50.582Z,242.15
2023-01-30T07:17:50.329Z,248.77
2023-01-30T07:18:50.359Z,237.76
2023-01-30T07:19:50.319Z,240.15
2023-01-30T07:20:50.948Z,249.97
2023-01-30T07:21:50.296Z,246.21
2023-01-30T07:22:50.287Z,248.87
2023-01-30T07:23:50.279Z,250.80
2023-01-30T07:24:50.426Z,249.55
2023-01-30T07:25:50.319Z,249.55
2023-01-30T07:26:50.263Z,250.00
2023-01-30T07:27:50.246Z,250.00
2023-01-30T07:28:50.267Z,248.57
2023-01-30T07:29:51.871Z,250.00
2023-01-30T07:30:50.464Z,250.17
2023-01-30T07:31:50.231Z,250.81
2023-01-30T07:32:50.205Z,251.53
2023-01-30T07:33:50.190Z,254.23
2023-01-30T07:34:50.181Z,264.80
2023-01-30T07:35:50.171Z,248.36
2023-01-30T07:36:50.445Z,250.00
2023-01-30T07:37:50.243Z,249.30
2023-01-30T07:38:50.143Z,248.63
2023-01-30T07:39:50.428Z,250.23
2023-01-30T07:40:50.128Z,250.00
2023-01-30T07:41:50.430Z,250.00
2023-01-30T07:42:50.107Z,245.94
2023-01-30T07:43:50.159Z,248.23
2023-01-30T07:44:50.130Z,217.27
2023-01-30T07:45:50.079Z,216.02
2023-01-30T07:46:50.466Z,173.08
2023-01-30T07:47:50.065Z,176.03
2023-01-30T07:48:50.089Z,164.44
2023-01-30T07:49:50.043Z,186.54
2023-01-30T07:50:50.051Z,188.25
2023-01-30T07:51:50.452Z,168.63
2023-01-30T07:52:50.017Z,164.56
2023-01-30T07:53:50.147Z,151.67
2023-01-30T07:54:50.264Z,158.58
2023-01-30T07:55:50.606Z,173.00
2023-01-30T07:56:50.652Z,181.07
2023-01-30T07:57:50.412Z,183.77
2023-01-30T07:58:50.170Z,190.41
2023-01-30T07:59:50.545Z,196.73
2023-01-30T08:00:51.007Z,201.17
2023-01-30T08:01:50.409Z,210.64
2023-01-30T08:02:50.366Z,209.81
2023-01-30T08:03:50.054Z,214.14
2023-01-30T08:05:50.560Z,220.37
2023-01-30T08:06:50.429Z,220.43
2023-01-30T08:07:50.252Z,221.35
2023-01-30T08:08:50.303Z,225.39
2023-01-30T08:09:50.438Z,230.09
2023-01-30T08:10:50.386Z,239.92
2023-01-30T08:11:50.132Z,243.68
2023-01-30T08:12:50.417Z,248.24
2023-01-30T08:13:50.473Z,249.80
2023-01-30T08:14:50.164Z,248.60
2023-01-30T08:15:50.537Z,249.58
2023-01-30T08:16:50.305Z,249.04
2023-01-30T08:17:50.347Z,248.48
2023-01-30T08:18:50.506Z,250.46
2023-01-30T08:19:50.350Z,251.12
2023-01-30T08:20:50.087Z,248.60
2023-01-30T08:21:49.943Z,247.66
2023-01-30T08:22:49.943Z,245.53
2023-01-30T08:23:49.759Z,249.39
2023-01-30T08:24:49.740Z,251.68
2023-01-30T08:25:49.723Z,242.77
2023-01-30T08:26:49.758Z,245.34
2023-01-30T08:27:50.978Z,246.43
2023-01-30T08:28:49.713Z,233.74
2023-01-30T08:29:49.697Z,233.85
2023-01-30T08:30:49.823Z,227.54
2023-01-30T08:31:49.703Z,220.82
2023-01-30T08:32:50.043Z,201.18
2023-01-30T08:33:50.079Z,192.86
2023-01-30T08:34:49.656Z,196.77
2023-01-30T08:35:49.634Z,196.65
2023-01-30T08:36:49.953Z,188.76
2023-01-30T08:38:49.607Z,118.57
2023-01-30T08:39:49.599Z,141.19
2023-01-30T08:40:49.592Z,143.44
2023-01-30T08:41:49.577Z,143.88
2023-01-30T08:42:49.955Z,138.24
2023-01-30T08:43:49.582Z,141.37
2023-01-30T08:44:49.553Z,142.87
2023-01-30T08:45:49.983Z,150.74
2023-01-30T08:46:49.564Z,158.36
2023-01-30T08:47:49.516Z,157.70
2023-01-30T08:48:50.413Z,155.87
2023-01-30T08:49:49.508Z,155.85
2023-01-30T08:50:49.967Z,155.02
2023-01-30T08:51:49.512Z,108.75
2023-01-30T08:52:49.484Z,107.64
2023-01-30T08:53:49.492Z,106.96
2023-01-30T08:54:49.463Z,112.01
2023-01-30T08:55:49.462Z,117.49
2023-01-30T08:56:49.438Z,117.39
2023-01-30T08:57:49.468Z,127.46
2023-01-30T08:58:49.428Z,134.37
2023-01-30T08:59:49.407Z,128.79
2023-01-30T09:00:49.710Z,124.61
2023-01-30T09:01:49.426Z,125.88
2023-01-30T09:02:49.532Z,128.82
2023-01-30T09:03:49.376Z,132.10
2023-01-30T09:04:49.413Z,133.66
2023-01-30T09:05:49.956Z,132.04
2023-01-30T09:06:49.369Z,135.24
2023-01-30T09:07:49.470Z,138.37
2023-01-30T09:08:49.340Z,140.03
2023-01-30T09:09:49.341Z,141.90
2023-01-30T09:10:49.308Z,143.28
2023-01-30T09:11:49.300Z,141.12
2023-01-30T09:12:49.466Z,145.45
2023-01-30T09:13:49.894Z,146.68
2023-01-30T09:14:49.274Z,146.67
2023-01-30T09:15:49.277Z,146.20
2023-01-30T09:16:49.305Z,150.21
2023-01-30T09:17:49.468Z,150.92
2023-01-30T09:18:49.515Z,152.09
2023-01-30T09:19:49.234Z,155.02
2023-01-30T09:20:49.305Z,155.70
2023-01-30T09:21:49.213Z,157.27
2023-01-30T09:22:49.210Z,159.42
2023-01-30T09:23:49.277Z,161.20
2023-01-30T09:24:49.476Z,161.94
2023-01-30T09:25:49.172Z,161.86
2023-01-30T09:26:49.204Z,163.74
2023-01-30T09:27:49.162Z,165.69
2023-01-30T09:28:49.146Z,166.07
2023-01-30T09:29:49.477Z,168.04
2023-01-30T09:30:49.258Z,168.43
2023-01-30T09:31:49.139Z,169.74
2023-01-30T09:32:49.140Z,171.13
2023-01-30T09:33:49.097Z,172.93
2023-01-30T09:34:49.475Z,173.64
2023-01-30T09:35:49.089Z,173.50
2023-01-30T09:36:49.528Z,176.96
2023-01-30T09:37:49.069Z,177.60
2023-01-30T09:38:49.060Z,178.03
2023-01-30T09:39:49.052Z,177.18
2023-01-30T09:40:49.032Z,178.74
2023-01-30T09:41:49.036Z,180.71
2023-01-30T09:42:56.879Z,183.06
2023-01-30T09:43:49.009Z,183.33
2023-01-30T09:44:49.473Z,183.90
2023-01-30T09:45:49.111Z,185.64
2023-01-30T09:46:49.496Z,187.63
2023-01-30T09:47:48.976Z,189.56
2023-01-30T09:48:48.966Z,188.94
2023-01-30T09:49:48.980Z,192.09
2023-01-30T09:51:48.976Z,195.50
2023-01-30T09:52:48.950Z,196.15
2023-01-30T09:53:48.929Z,196.84
2023-01-30T09:54:49.408Z,198.80
2023-01-30T09:55:48.980Z,200.78
2023-01-30T09:56:48.903Z,201.21
2023-01-30T09:57:48.881Z,202.88
2023-01-30T09:58:48.923Z,203.81
2023-01-30T09:59:48.869Z,206.37
2023-01-30T10:00:48.980Z,198.92
2023-01-30T10:01:48.864Z,199.94
2023-01-30T10:02:48.856Z,204.60
2023-01-30T10:03:48.934Z,203.50
2023-01-30T10:05:00.618Z,203.66
2023-01-30T10:05:48.844Z,203.95
2023-01-30T10:06:48.819Z,204.96
2023-01-30T10:07:48.932Z,205.89
2023-01-30T10:08:48.816Z,206.13
2023-01-30T10:09:48.985Z,206.81
2023-01-30T10:11:00.741Z,208.96
2023-01-30T10:11:48.786Z,209.25
2023-01-30T10:12:48.796Z,209.91
2023-01-30T10:13:48.735Z,210.67
2023-01-30T10:14:49.000Z,211.17
2023-01-30T10:15:49.045Z,214.81
2023-01-30T10:16:48.708Z,215.35
2023-01-30T10:17:48.710Z,217.73
2023-01-30T10:18:48.708Z,217.70
2023-01-30T10:19:48.678Z,219.02
2023-01-30T10:20:49.021Z,220.55
2023-01-30T10:21:48.669Z,218.47
2023-01-30T10:22:48.654Z,220.66
2023-01-30T10:23:48.649Z,222.32
2023-01-30T10:24:48.659Z,224.48
2023-01-30T10:25:48.986Z,223.90
2023-01-30T10:26:48.762Z,226.31
2023-01-30T10:27:48.609Z,227.07
2023-01-30T10:28:55.508Z,225.49
2023-01-30T10:29:48.605Z,225.86
2023-01-30T10:30:49.182Z,226.95
2023-01-30T10:31:48.643Z,187.42
2023-01-30T10:32:48.567Z,171.03
2023-01-30T10:33:48.564Z,181.87
2023-01-30T10:34:48.569Z,181.43
2023-01-30T10:35:49.017Z,145.62
2023-01-30T10:36:48.542Z,161.40
2023-01-30T10:37:48.523Z,173.46
2023-01-30T10:38:48.509Z,158.67
2023-01-30T10:39:54.932Z,158.64
2023-01-30T10:40:48.520Z,154.92
2023-01-30T10:41:48.584Z,154.95
2023-01-30T10:42:48.772Z,137.25
2023-01-30T10:44:48.465Z,134.66
2023-01-30T10:45:48.581Z,152.41
2023-01-30T10:46:48.614Z,148.72
2023-01-30T10:47:48.429Z,141.45
2023-01-30T10:48:48.419Z,139.34
2023-01-30T10:49:48.418Z,138.37
2023-01-30T10:50:48.511Z,137.48
2023-01-30T10:51:48.390Z,138.10
2023-01-30T10:52:48.383Z,138.72
2023-01-30T10:53:48.412Z,139.45
2023-01-30T10:54:48.361Z,141.66
2023-01-30T10:55:48.369Z,140.49
2023-01-30T10:56:48.535Z,139.08
2023-01-30T10:57:48.343Z,136.42
2023-01-30T10:58:48.343Z,137.02
2023-01-30T10:59:48.345Z,138.83
2023-01-30T11:00:48.518Z,137.93
2023-01-30T11:01:48.340Z,136.07
2023-01-30T11:02:50.779Z,138.98
2023-01-30T11:03:48.284Z,139.12
2023-01-30T11:04:48.283Z,139.71
2023-01-30T11:05:48.295Z,139.49
2023-01-30T11:06:48.265Z,139.59
2023-01-30T11:07:48.248Z,140.14
2023-01-30T11:09:48.233Z,140.26
2023-01-30T11:10:48.235Z,140.51
2023-01-30T11:11:48.218Z,140.56
2023-01-30T11:12:48.238Z,140.30
2023-01-30T11:13:48.506Z,140.53
2023-01-30T11:14:48.187Z,145.29
2023-01-30T11:15:48.260Z,143.16
2023-01-30T11:16:48.184Z,143.05
2023-01-30T11:17:48.166Z,142.54
2023-01-30T11:19:19.019Z,142.74
2023-01-30T11:19:48.514Z,143.03
2023-01-30T11:20:48.189Z,143.96
2023-01-30T11:21:48.124Z,141.06
2023-01-30T11:22:48.111Z,143.70
2023-01-30T11:23:48.113Z,144.37
2023-01-30T11:24:48.515Z,143.24
2023-01-30T11:25:48.089Z,142.62
2023-01-30T11:26:48.750Z,140.35
2023-01-30T11:27:48.083Z,140.04
2023-01-30T11:28:49.093Z,139.45
2023-01-30T11:29:48.517Z,137.98
2023-01-30T11:30:48.070Z,138.08
2023-01-30T11:31:48.226Z,137.95
2023-01-30T11:32:48.043Z,136.87
2023-01-30T11:33:48.018Z,138.82
2023-01-30T11:34:48.100Z,137.21
2023-01-30T11:35:47.996Z,132.88
2023-01-30T11:36:47.992Z,133.51
2023-01-30T11:37:47.985Z,133.53
2023-01-30T11:38:47.975Z,132.48
2023-01-30T11:39:48.021Z,133.08
2023-01-30T11:40:47.966Z,131.15
2023-01-30T11:41:47.945Z,130.99
2023-01-30T11:42:47.950Z,131.57
2023-01-30T11:43:48.022Z,130.92
2023-01-30T11:44:48.051Z,131.01
2023-01-30T11:45:48.609Z,130.62
2023-01-30T11:46:47.898Z,129.21
2023-01-30T11:47:56.722Z,127.79
2023-01-30T11:49:02.654Z,128.03
2023-01-30T11:49:58.069Z,128.15
2023-01-30T11:50:49.609Z,128.27
2023-01-30T11:51:48.029Z,128.23
2023-01-30T11:52:47.841Z,128.82
2023-01-30T11:53:47.840Z,128.62
2023-01-30T11:54:47.829Z,127.08
2023-01-30T11:56:02.165Z,127.13
2023-01-30T11:56:48.056Z,128.07
2023-01-30T11:57:47.806Z,128.25
2023-01-30T11:58:47.795Z,126.27
2023-01-30T11:59:48.784Z,125.18
2023-01-30T12:00:48.058Z,125.21
2023-01-30T12:01:47.794Z,120.89
2023-01-30T12:02:47.790Z,122.67
2023-01-30T12:03:47.753Z,123.18
2023-01-30T12:04:47.784Z,120.71
2023-01-30T12:05:48.031Z,121.85
2023-01-30T12:06:47.717Z,118.74
2023-01-30T12:07:47.724Z,120.08
2023-01-30T12:08:47.710Z,117.66
2023-01-30T12:09:48.083Z,119.22
2023-01-30T12:10:47.693Z,117.05
2023-01-30T12:11:47.679Z,58.90
2023-01-30T12:12:47.675Z,24.18
2023-01-30T12:13:47.660Z,25.37
2023-01-30T12:14:47.648Z,49.70
2023-01-30T12:15:48.033Z,56.10
2023-01-30T12:16:47.651Z,55.78
2023-01-30T12:17:47.630Z,59.09
2023-01-30T12:18:47.614Z,57.15
2023-01-30T12:19:48.036Z,64.56
2023-01-30T12:20:48.040Z,113.61
2023-01-30T12:21:47.605Z,116.28
2023-01-30T12:22:47.580Z,110.31
2023-01-30T12:23:47.581Z,108.19
2023-01-30T12:24:47.559Z,99.20
2023-01-30T12:25:48.037Z,113.86
2023-01-30T12:26:47.609Z,139.99
2023-01-30T12:27:47.531Z,165.69
2023-01-30T12:28:47.525Z,162.39
2023-01-30T12:29:47.510Z,141.72
2023-01-30T12:30:47.538Z,127.81
2023-01-30T12:31:47.495Z,144.68
2023-01-30T12:32:47.563Z,158.92
2023-01-30T12:33:47.475Z,169.08
2023-01-30T12:34:48.057Z,177.46
2023-01-30T12:35:47.967Z,177.50
2023-01-30T12:36:47.459Z,171.15
2023-01-30T12:37:47.440Z,164.12
2023-01-30T12:38:47.433Z,176.84
2023-01-30T12:39:47.448Z,178.05
2023-01-30T12:40:47.541Z,180.40
2023-01-30T12:41:47.400Z,177.80
2023-01-30T12:42:47.402Z,176.57
2023-01-30T12:43:47.388Z,177.08
2023-01-30T12:44:47.385Z,181.22
2023-01-30T12:45:47.544Z,182.43
2023-01-30T12:46:47.358Z,184.35
2023-01-30T12:47:47.363Z,184.04
2023-01-30T12:48:48.845Z,183.01
2023-01-30T12:49:47.354Z,183.23
2023-01-30T12:50:47.576Z,183.89
2023-01-30T12:51:47.321Z,183.51
2023-01-30T12:52:47.309Z,183.79
2023-01-30T12:53:47.299Z,184.78
2023-01-30T12:54:47.331Z,186.98
2023-01-30T12:55:47.610Z,184.01
2023-01-30T12:56:48.380Z,185.71
2023-01-30T12:57:47.269Z,185.76
2023-01-30T12:58:47.258Z,185.89
2023-01-30T12:59:47.258Z,181.40
2023-01-30T13:00:47.235Z,182.79
2023-01-30T13:01:47.673Z,185.60
2023-01-30T13:02:47.303Z,184.98
2023-01-30T13:03:47.210Z,181.97
2023-01-30T13:04:56.265Z,184.49
2023-01-30T13:05:47.188Z,184.64
2023-01-30T13:06:48.066Z,184.83
2023-01-30T13:07:47.555Z,183.88
2023-01-30T13:08:47.195Z,178.63
2023-01-30T13:09:47.158Z,176.93
2023-01-30T13:10:47.560Z,176.81
2023-01-30T13:11:47.173Z,174.77
2023-01-30T13:12:47.553Z,174.47
2023-01-30T13:13:47.122Z,175.52
2023-01-30T13:14:47.140Z,175.25
2023-01-30T13:15:47.604Z,170.06
2023-01-30T13:16:47.117Z,169.94
2023-01-30T13:17:47.558Z,169.10
2023-01-30T13:18:47.085Z,168.49
2023-01-30T13:19:47.078Z,169.10
2023-01-30T13:20:47.077Z,169.14
2023-01-30T13:21:47.066Z,169.41
2023-01-30T13:22:47.091Z,166.75
2023-01-30T13:23:47.089Z,166.40
2023-01-30T13:24:47.055Z,166.70
2023-01-30T13:25:47.063Z,166.08
2023-01-30T13:26:47.218Z,166.18
2023-01-30T13:27:46.990Z,166.48
2023-01-30T13:28:46.990Z,165.09
2023-01-30T13:29:46.999Z,161.81
2023-01-30T13:30:46.977Z,159.62
2023-01-30T13:31:47.339Z,161.71
2023-01-30T13:32:46.948Z,159.99
2023-01-30T13:33:46.936Z,160.65
2023-01-30T13:34:46.931Z,158.05
2023-01-30T13:35:46.931Z,158.64
2023-01-30T13:36:47.139Z,157.17